Time;durP1;ratioP1;P1;durP2;ratioP2;P2;SDS_P1;SDS_P2;PMS_P1;PMS_P2;Temp;Humidity;BMP_temperature;BMP_pressure;BME280_temperature;BME280_humidity;BME280_pressure;Samples;Min_cycle;Max_cycle;Signal;HPM_P1;HPM_P2
2022/01/14 05:42:17;;;;;;;8.55;5.33;;;;;;;0.79;100.00;99459.91;1667159;84;21081;-44
2022/01/14 05:44:43;;;;;;;12.25;6.30;;;;;;;0.82;100.00;99459.14;1656895;86;21072;-44
2022/01/14 05:47:10;;;;;;;9.63;6.12;;;;;;;0.83;100.00;99455.73;1659105;85;21085;-45
2022/01/14 05:49:37;;;;;;;9.15;6.65;;;;;;;0.85;100.00;99445.91;1658528;85;20983;-45
2022/01/14 05:52:04;;;;;;;7.72;5.78;;;;;;;0.87;100.00;99438.21;1660483;85;21046;-37
2022/01/14 05:54:31;;;;;;;8.45;5.97;;;;;;;0.90;100.00;99439.59;1658769;85;20994;-44
2022/01/14 05:56:57;;;;;;;7.37;5.65;;;;;;;0.92;100.00;99455.94;1661629;86;21699;-38
2022/01/14 05:59:24;;;;;;;8.03;5.80;;;;;;;0.95;100.00;99443.16;1664475;85;21385;-38
2022/01/14 06:01:50;;;;;;;7.58;5.65;;;;;;;0.97;100.00;99445.34;1657499;85;21093;-38
2022/01/14 06:04:17;;;;;;;6.70;4.87;;;;;;;0.99;100.00;99456.16;1657997;85;20969;-38
2022/01/14 06:06:43;;;;;;;6.90;4.92;;;;;;;1.03;100.00;99440.34;1664063;84;21041;-45
2022/01/14 06:09:10;;;;;;;6.80;4.97;;;;;;;1.08;100.00;99451.63;1657880;86;20994;-38
2022/01/14 06:11:37;;;;;;;7.70;5.50;;;;;;;1.10;100.00;99429.34;1662513;84;21110;-44
2022/01/14 06:14:03;;;;;;;9.53;6.20;;;;;;;1.13;100.00;99428.14;1662353;85;21629;-38
2022/01/14 06:16:30;;;;;;;7.70;5.08;;;;;;;1.17;100.00;99436.83;1661502;85;21030;-39
2022/01/14 06:18:57;;;;;;;8.00;5.47;;;;;;;1.21;100.00;99424.45;1666410;85;21037;-45
2022/01/14 06:21:24;;;;;;;10.38;6.25;;;;;;;1.23;100.00;99439.13;1654396;85;21061;-38
2022/01/14 06:23:51;;;;;;;6.50;4.87;;;;;;;1.27;100.00;99419.02;1662612;85;21345;-38
2022/01/14 06:26:18;;;;;;;9.33;5.80;;;;;;;1.29;100.00;99419.07;1663728;85;21545;-37
2022/01/14 06:28:51;;;;;;;6.85;5.42;;;;;;;1.32;100.00;99399.80;1653864;85;21049;-45
2022/01/14 06:31:34;;;;;;;7.90;5.33;;;;;;;1.35;100.00;99391.28;1635401;85;21982;-43
2022/01/14 06:34:11;;;;;;;9.88;6.92;;;;;;;1.37;100.00;99390.47;1614924;86;21554;-37
2022/01/14 06:45:08;;;;;;;7.70;5.33;;;;;;;1.42;100.00;99388.86;1653833;86;21078;-37
2022/01/14 06:53:12;;;;;;;9.23;6.40;;;;;;;1.43;100.00;99368.69;1651087;84;21722;-37
2022/01/14 06:56:58;;;;;;;8.18;4.87;;;;;;;1.47;100.00;99381.23;1655884;85;21057;-44
2022/01/14 06:59:49;;;;;;;8.08;4.97;;;;;;;1.50;100.00;99349.06;1657829;85;21308;-36
2022/01/14 07:02:16;;;;;;;8.33;5.47;;;;;;;1.51;100.00;99352.12;1652874;85;21081;-43
2022/01/14 07:04:45;;;;;;;9.45;5.10;;;;;;;1.51;100.00;99348.25;1655374;85;20956;-44
2022/01/14 07:07:12;;;;;;;5.87;3.95;;;;;;;1.50;100.00;99346.06;1660408;85;21109;-44
2022/01/14 07:09:56;;;;;;;5.10;3.87;;;;;;;1.50;100.00;99342.62;1659600;85;21418;-38
2022/01/14 07:12:10;;;;;;;4.87;4.12;;;;;;;1.51;100.00;99377.90;1653997;85;21650;-45
2022/01/14 07:14:38;;;;;;;5.55;4.12;;;;;;;1.50;100.00;99334.46;1653705;85;21436;-37
2022/01/14 07:17:39;;;;;;;4.83;3.87;;;;;;;1.49;100.00;99333.14;1657604;85;21131;-37
2022/01/14 07:33:38;;;;;;;6.33;4.10;;;;;;;1.30;100.00;99302.26;1652308;85;21959;-44
2022/01/14 07:40:41;;;;;;;4.50;3.60;;;;;;;1.26;100.00;99294.00;1653000;85;21412;-44
2022/01/14 07:43:20;;;;;;;5.50;4.12;;;;;;;1.26;100.00;99279.41;1666763;84;21065;-44
2022/01/14 07:45:47;;;;;;;8.63;4.35;;;;;;;1.27;100.00;99272.54;1663899;85;21018;-46
2022/01/14 07:48:15;;;;;;;6.25;4.22;;;;;;;1.28;100.00;99263.58;1666530;83;21068;-38
2022/01/14 07:50:42;;;;;;;6.47;4.03;;;;;;;1.29;100.00;99268.30;1665441;83;21069;-38
2022/01/14 07:53:09;;;;;;;5.78;4.28;;;;;;;1.28;100.00;99267.86;1662601;83;21669;-38
2022/01/14 07:55:36;;;;;;;5.92;4.53;;;;;;;1.28;100.00;99258.84;1665551;83;21018;-38
2022/01/14 07:58:03;;;;;;;6.87;4.58;;;;;;;1.29;100.00;99261.45;1663571;83;21407;-39
2022/01/14 08:00:30;;;;;;;7.15;5.17;;;;;;;1.30;100.00;99239.98;1665934;83;21057;-44
2022/01/14 08:02:57;;;;;;;6.70;4.37;;;;;;;1.33;100.00;99252.05;1668176;84;21613;-44
2022/01/14 08:05:24;;;;;;;6.55;4.60;;;;;;;1.37;100.00;99240.10;1669661;83;21052;-44
2022/01/14 08:07:53;;;;;;;7.72;4.83;;;;;;;1.40;100.00;99236.31;1665281;83;21109;-38
2022/01/14 08:10:19;;;;;;;12.63;6.65;;;;;;;1.42;100.00;99236.78;1665514;83;20982;-37
2022/01/14 08:12:46;;;;;;;9.38;5.45;;;;;;;1.45;100.00;99220.48;1671086;83;21305;-37
2022/01/14 08:15:13;;;;;;;9.05;5.40;;;;;;;1.46;100.00;99206.37;1672777;84;21481;-37
2022/01/14 08:17:40;;;;;;;7.97;5.22;;;;;;;1.49;100.00;99191.36;1670408;83;21057;-37
2022/01/14 08:20:09;;;;;;;11.90;6.58;;;;;;;1.53;100.00;99192.74;1662898;84;21445;-36
2022/01/14 08:22:36;;;;;;;9.38;6.05;;;;;;;1.56;100.00;99190.63;1662525;84;21924;-38
2022/01/14 08:25:03;;;;;;;13.62;8.25;;;;;;;1.58;100.00;99187.25;1667207;84;21016;-38
2022/01/14 08:31:59;;;;;;;8.98;6.37;;;;;;;1.63;100.00;99177.03;1665920;83;20998;-45
2022/01/14 08:46:39;;;;;;;9.93;6.33;;;;;;;1.79;100.00;99152.36;1666290;83;21501;-45
2022/01/14 08:49:56;;;;;;;10.08;6.97;;;;;;;1.82;100.00;99127.50;1657907;84;21002;-44
2022/01/14 08:52:28;;;;;;;11.20;7.33;;;;;;;1.85;100.00;99113.77;1672198;83;21499;-45
2022/01/14 08:55:08;;;;;;;16.27;8.53;;;;;;;1.87;100.00;99134.02;1671927;83;21635;-45
2022/01/14 08:57:46;;;;;;;10.35;6.78;;;;;;;1.90;100.00;99100.52;1653013;85;21547;-45
2022/01/14 09:00:14;;;;;;;10.13;7.33;;;;;;;1.92;100.00;99120.78;1664985;84;21438;-43
2022/01/14 09:02:41;;;;;;;8.95;6.87;;;;;;;1.95;100.00;99092.86;1671422;82;21053;-37
2022/01/14 09:05:08;;;;;;;9.23;6.50;;;;;;;1.96;100.00;99098.46;1671515;84;21045;-37
2022/01/14 09:07:35;;;;;;;11.28;6.12;;;;;;;1.96;100.00;99101.91;1671788;84;21049;-37
2022/01/14 09:10:05;;;;;;;10.08;7.35;;;;;;;1.97;100.00;99100.19;1674981;83;21547;-43
2022/01/14 09:12:34;;;;;;;11.85;6.60;;;;;;;1.98;100.00;99090.34;1657931;85;21592;-37
2022/01/14 09:15:01;;;;;;;9.50;6.67;;;;;;;2.00;100.00;99086.06;1651879;85;21427;-44
2022/01/14 09:17:28;;;;;;;11.33;7.08;;;;;;;2.01;99.98;99103.27;1672898;84;21061;-38
2022/01/14 09:20:04;;;;;;;13.85;7.65;;;;;;;2.02;99.50;99065.02;1671379;84;21053;-36
2022/01/14 09:22:34;;;;;;;13.72;7.90;;;;;;;2.04;99.56;99070.66;1670369;84;21434;-44
2022/01/14 09:25:14;;;;;;;9.20;7.15;;;;;;;2.06;99.53;99059.92;1673425;83;21507;-43
2022/01/14 09:27:58;;;;;;;8.03;6.67;;;;;;;2.06;99.20;99036.70;1669768;83;21002;-43
2022/01/14 09:30:37;;;;;;;10.35;7.12;;;;;;;2.06;99.00;99065.52;1670370;84;21080;-44
2022/01/14 09:37:03;;;;;;;10.20;7.53;;;;;;;2.10;98.80;99015.27;1655933;83;21039;-40
2022/01/14 09:40:06;;;;;;;10.18;7.30;;;;;;;2.10;98.59;99017.84;1666373;83;21075;-38
2022/01/14 09:46:50;;;;;;;8.55;6.08;;;;;;;2.15;98.21;98990.82;1673574;84;21615;-36
2022/01/14 09:49:16;;;;;;;10.63;7.22;;;;;;;2.15;97.92;99002.44;1675130;83;21037;-37
2022/01/14 09:51:46;;;;;;;11.18;6.97;;;;;;;2.14;97.70;98985.19;1673254;83;21135;-37
2022/01/14 09:54:12;;;;;;;12.58;6.90;;;;;;;2.14;97.74;98976.16;1675843;83;21018;-39
2022/01/14 09:56:39;;;;;;;9.48;6.67;;;;;;;2.14;97.31;98994.22;1677097;83;21610;-37
2022/01/14 09:59:13;;;;;;;8.33;5.95;;;;;;;2.15;97.52;98980.50;1679757;84;20961;-44
2022/01/14 10:01:46;;;;;;;9.55;6.85;;;;;;;2.16;97.29;98971.91;1676912;83;21046;-44
2022/01/14 10:04:21;;;;;;;9.43;6.35;;;;;;;2.17;97.39;98967.19;1676766;83;21888;-44
2022/01/14 10:06:59;;;;;;;9.20;7.10;;;;;;;2.18;97.22;98965.04;1676185;83;21636;-37
2022/01/14 10:09:47;;;;;;;12.00;7.30;;;;;;;2.19;97.18;98963.32;1675304;83;21033;-38
2022/01/14 10:12:20;;;;;;;10.18;6.80;;;;;;;2.18;97.06;98961.17;1671477;84;21987;-44
2022/01/14 10:15:55;;;;;;;12.75;8.25;;;;;;;2.20;96.86;98950.86;1660753;85;21030;-45
2022/01/14 10:19:18;;;;;;;10.72;6.87;;;;;;;2.21;96.87;98955.20;1662897;84;21054;-38
2022/01/14 10:22:54;;;;;;;11.45;7.95;;;;;;;2.21;96.86;98961.22;1661121;84;21550;-45
2022/01/14 10:25:56;;;;;;;14.40;7.67;;;;;;;2.21;96.84;98938.42;1663320;84;20979;-38
2022/01/14 10:29:06;;;;;;;11.90;7.22;;;;;;;2.19;96.89;98924.19;1659810;84;21706;-38
2022/01/14 10:31:56;;;;;;;20.32;12.00;;;;;;;2.18;96.74;98921.59;1673393;82;21455;-45
2022/01/14 10:35:19;;;;;;;11.73;7.62;;;;;;;2.18;96.91;98904.39;1661578;84;21271;-46
2022/01/14 10:38:49;;;;;;;11.25;7.37;;;;;;;2.18;97.09;98894.08;1656556;83;21414;-45
2022/01/14 10:42:53;;;;;;;15.03;8.58;;;;;;;2.18;97.23;98891.92;1666057;83;21933;-45
2022/01/14 10:46:14;;;;;;;21.45;14.68;;;;;;;2.17;97.15;98878.58;1671013;84;21657;-39
2022/01/14 10:49:12;;;;;;;10.13;7.28;;;;;;;2.17;96.99;98872.99;1666101;84;20983;-44
2022/01/14 10:52:31;;;;;;;12.53;7.55;;;;;;;2.18;96.78;98877.73;1649183;85;21142;-44
2022/01/14 10:55:34;;;;;;;11.10;6.62;;;;;;;2.17;96.64;98851.06;1652857;85;21611;-46
2022/01/14 10:58:24;;;;;;;10.32;6.90;;;;;;;2.19;96.37;98848.48;1650493;85;21050;-38
2022/01/14 11:01:00;;;;;;;11.83;7.47;;;;;;;2.20;96.30;98848.92;1651616;84;21499;-37
2022/01/14 11:03:48;;;;;;;16.25;7.53;;;;;;;2.20;96.32;98842.47;1678401;83;21288;-37
2022/01/14 11:06:48;;;;;;;11.78;7.20;;;;;;;2.20;96.01;98844.63;1677802;84;21449;-43
2022/01/14 11:09:47;;;;;;;11.53;6.72;;;;;;;2.19;95.77;98819.67;1677721;84;21412;-37
2022/01/14 11:12:37;;;;;;;10.60;6.37;;;;;;;2.21;95.60;98851.97;1673975;84;21144;-42
2022/01/14 11:15:40;;;;;;;6.92;4.67;;;;;;;2.22;95.73;98824.02;1658561;84;21412;-43
2022/01/14 11:18:19;;;;;;;8.15;5.92;;;;;;;2.22;95.60;98822.73;1678133;83;21061;-37
2022/01/14 11:23:44;;;;;;;11.65;7.15;;;;;;;2.25;95.36;98790.48;1675757;84;21010;-38
2022/01/14 11:26:15;;;;;;;9.00;5.97;;;;;;;2.26;95.25;98778.01;1674619;84;21398;-44
2022/01/14 11:28:43;;;;;;;8.33;5.65;;;;;;;2.26;95.31;98804.72;1674208;84;21065;-44
2022/01/14 11:31:25;;;;;;;8.85;5.17;;;;;;;2.26;95.27;98769.88;1673940;83;21054;-44
2022/01/14 11:33:52;;;;;;;7.37;4.83;;;;;;;2.26;95.18;98755.68;1617712;86;20987;-42
2022/01/14 11:36:19;;;;;;;8.05;4.97;;;;;;;2.28;94.95;98762.14;1621941;86;21061;-44
2022/01/14 11:38:52;;;;;;;8.48;5.33;;;;;;;2.30;94.73;98769.03;1603515;86;21453;-43
2022/01/14 11:41:22;;;;;;;9.25;4.97;;;;;;;2.32;94.59;98762.58;1623132;86;21089;-37
2022/01/14 11:43:54;;;;;;;9.93;5.20;;;;;;;2.34;94.66;98747.98;1622832;86;21047;-37
2022/01/14 11:46:42;;;;;;;8.80;5.42;;;;;;;2.33;94.54;98758.74;1623761;86;21600;-37
2022/01/14 11:49:37;;;;;;;7.67;5.20;;;;;;;2.34;94.57;98737.23;1567137;89;21107;-43
2022/01/14 11:52:07;;;;;;;7.97;4.40;;;;;;;2.35;94.31;98744.55;1622767;86;21123;-42
2022/01/14 11:54:45;;;;;;;7.33;4.67;;;;;;;2.38;94.40;98746.75;1625906;86;21023;-44
2022/01/14 11:57:34;;;;;;;8.60;5.00;;;;;;;2.37;94.25;98742.84;1624921;85;21053;-36
2022/01/14 12:00:01;;;;;;;8.73;5.15;;;;;;;2.39;94.14;98736.85;1625126;86;21099;-45
2022/01/14 12:02:31;;;;;;;6.28;4.85;;;;;;;2.39;94.09;98736.85;1580777;88;21278;-37
2022/01/14 12:05:09;;;;;;;8.43;4.95;;;;;;;2.43;93.79;98730.41;1579412;89;21463;-44
2022/01/14 12:08:10;;;;;;;7.95;5.17;;;;;;;2.45;93.68;98762.28;1607627;86;21073;-47
2022/01/14 12:10:48;;;;;;;7.83;5.28;;;;;;;2.46;93.28;98739.48;1653293;83;21174;-45
2022/01/14 12:13:43;;;;;;;7.45;5.30;;;;;;;2.48;93.32;98728.73;1671378;84;21127;-45
2022/01/14 12:19:04;;;;;;;7.35;5.15;;;;;;;2.48;93.31;98746.38;1677606;84;20994;-45
2022/01/14 12:21:50;;;;;;;8.43;5.35;;;;;;;2.50;93.17;98731.77;1674019;84;21049;-45
2022/01/14 12:24:27;;;;;;;8.30;5.87;;;;;;;2.50;92.97;98720.59;1673293;83;21021;-39
2022/01/14 12:27:12;;;;;;;9.45;5.45;;;;;;;2.51;92.94;98711.98;1674773;83;21096;-36
2022/01/14 12:29:49;;;;;;;6.72;4.97;;;;;;;2.51;92.79;98698.64;1675681;83;21447;-42
2022/01/14 12:32:30;;;;;;;8.70;5.58;;;;;;;2.54;92.73;98693.48;1673261;83;21094;-43
2022/01/14 12:35:06;;;;;;;9.85;5.58;;;;;;;2.56;92.70;98694.81;1672322;83;20989;-47
2022/01/14 12:37:48;;;;;;;9.73;5.62;;;;;;;2.56;92.74;98695.67;1676890;83;21072;-41
2022/01/14 12:40:23;;;;;;;7.40;4.47;;;;;;;2.57;92.91;98719.34;1672462;83;21382;-44
2022/01/14 12:42:55;;;;;;;7.58;5.62;;;;;;;2.59;92.70;98676.31;1664859;84;21520;-42
2022/01/14 12:45:34;;;;;;;7.17;4.17;;;;;;;2.61;92.80;98666.87;1680745;83;21458;-45
2022/01/14 12:48:29;;;;;;;6.75;4.80;;;;;;;2.61;92.91;98660.41;1644056;83;21010;-45
2022/01/14 12:50:47;;;;;;;8.85;5.47;;;;;;;2.61;92.97;98637.17;1575990;88;21526;-44
2022/01/14 12:53:25;;;;;;;8.50;5.37;;;;;;;2.62;93.17;98638.90;1592508;87;21146;-44
2022/01/14 12:55:52;;;;;;;8.48;4.72;;;;;;;2.61;93.21;98618.24;1594899;88;21039;-37
2022/01/14 12:58:24;;;;;;;9.88;5.00;;;;;;;2.62;93.31;98626.42;1624000;86;21549;-37
2022/01/14 13:01:07;;;;;;;7.62;5.33;;;;;;;2.62;93.40;98615.66;1622912;86;21018;-45
2022/01/14 13:03:46;;;;;;;11.30;5.53;;;;;;;2.63;93.45;98613.94;1623525;86;21571;-45
2022/01/14 13:06:13;;;;;;;7.17;4.92;;;;;;;2.62;93.52;98613.08;1623827;86;21600;-45
2022/01/14 13:08:40;;;;;;;6.97;4.40;;;;;;;2.63;93.59;98607.48;1588474;87;21409;-44
2022/01/14 13:11:07;;;;;;;7.97;4.60;;;;;;;2.63;93.64;98604.47;1600173;87;21404;-37
2022/01/14 13:13:37;;;;;;;9.85;5.25;;;;;;;2.63;93.61;98605.76;1587860;88;21066;-38
2022/01/14 13:16:07;;;;;;;6.10;3.92;;;;;;;2.65;93.52;98583.37;1590402;89;21176;-44
2022/01/14 13:18:48;;;;;;;6.58;4.37;;;;;;;2.66;93.64;98588.11;1589035;88;21046;-44
2022/01/14 13:21:15;;;;;;;7.72;5.10;;;;;;;2.68;93.47;98589.44;1581988;88;21691;-44
2022/01/14 13:23:49;;;;;;;7.47;4.60;;;;;;;2.70;93.41;98573.08;1641768;86;21536;-44
2022/01/14 13:26:16;;;;;;;6.67;4.08;;;;;;;2.71;93.25;98567.05;1574235;89;21486;-43
2022/01/14 13:28:47;;;;;;;6.10;4.03;;;;;;;2.74;93.26;98557.17;1594590;88;21029;-44
2022/01/14 13:31:14;;;;;;;7.12;4.28;;;;;;;2.75;93.14;98571.81;1601785;88;21436;-44
2022/01/14 13:33:40;;;;;;;6.17;4.15;;;;;;;2.77;93.15;98561.91;1604145;86;21059;-43
2022/01/14 13:36:07;;;;;;;4.70;3.67;;;;;;;2.78;93.08;98574.39;1636758;84;21002;-44
2022/01/14 13:38:33;;;;;;;4.85;3.45;;;;;;;2.78;93.16;98559.75;1641140;86;21012;-44
2022/01/14 13:41:00;;;;;;;6.47;4.05;;;;;;;2.79;93.25;98553.75;1637049;86;21508;-45
2022/01/14 13:43:32;;;;;;;5.67;4.00;;;;;;;2.78;93.33;98542.10;1629066;86;21020;-45
2022/01/14 13:46:07;;;;;;;10.40;4.10;;;;;;;2.77;93.50;98553.30;1640182;86;21887;-45
2022/01/14 13:48:46;;;;;;;5.47;3.95;;;;;;;2.77;93.62;98552.00;1639214;86;21110;-44
2022/01/14 13:51:22;;;;;;;4.72;3.77;;;;;;;2.76;93.86;98562.77;1675999;84;21022;-44
2022/01/14 13:53:49;;;;;;;5.62;3.55;;;;;;;2.76;94.05;98578.27;1675802;84;21076;-44
2022/01/14 13:56:21;;;;;;;4.00;3.35;;;;;;;2.76;94.44;98542.53;1672363;83;20994;-38
